sensor_id;sensor_type;location;lat;lon;timestamp;P1;durP1;ratioP1;P2;durP2;ratioP2
56927;SDS011;60850;52.502;13.426;2023-06-22T00:01:14;16.95;;;10.68;;
56927;SDS011;60850;52.502;13.426;2023-06-22T00:03:41;12.57;;;10.20;;
56927;SDS011;60850;52.502;13.426;2023-06-22T00:06:07;13.50;;;10.00;;
56927;SDS011;60850;52.502;13.426;2023-06-22T00:08:34;11.73;;;9.23;;
56927;SDS011;60850;52.502;13.426;2023-06-22T00:11:01;14.20;;;10.23;;
56927;SDS011;60850;52.502;13.426;2023-06-22T00:13:28;13.82;;;9.88;;
56927;SDS011;60850;52.502;13.426;2023-06-22T00:15:56;16.08;;;10.13;;
56927;SDS011;60850;52.502;13.426;2023-06-22T00:18:23;14.52;;;9.88;;
56927;SDS011;60850;52.502;13.426;2023-06-22T00:20:53;13.00;;;9.00;;
56927;SDS011;60850;52.502;13.426;2023-06-22T00:23:23;13.82;;;9.35;;
56927;SDS011;60850;52.502;13.426;2023-06-22T00:25:50;12.52;;;9.30;;
56927;SDS011;60850;52.502;13.426;2023-06-22T00:28:17;12.98;;;10.25;;
56927;SDS011;60850;52.502;13.426;2023-06-22T00:30:44;13.32;;;9.57;;
56927;SDS011;60850;52.502;13.426;2023-06-22T00:33:13;11.85;;;9.68;;
56927;SDS011;60850;52.502;13.426;2023-06-22T00:35:41;12.45;;;8.85;;
56927;SDS011;60850;52.502;13.426;2023-06-22T00:38:08;17.63;;;10.25;;
56927;SDS011;60850;52.502;13.426;2023-06-22T00:40:35;11.95;;;9.30;;
56927;SDS011;60850;52.502;13.426;2023-06-22T00:43:02;14.50;;;10.30;;
56927;SDS011;60850;52.502;13.426;2023-06-22T00:45:29;13.02;;;9.50;;
56927;SDS011;60850;52.502;13.426;2023-06-22T00:47:57;13.70;;;9.77;;
56927;SDS011;60850;52.502;13.426;2023-06-22T00:50:26;13.70;;;9.95;;
56927;SDS011;60850;52.502;13.426;2023-06-22T00:52:59;13.15;;;9.95;;
56927;SDS011;60850;52.502;13.426;2023-06-22T00:55:27;17.80;;;9.77;;
56927;SDS011;60850;52.502;13.426;2023-06-22T00:57:54;12.80;;;10.15;;
56927;SDS011;60850;52.502;13.426;2023-06-22T01:00:22;14.13;;;10.52;;
56927;SDS011;60850;52.502;13.426;2023-06-22T01:02:50;13.63;;;9.68;;
56927;SDS011;60850;52.502;13.426;2023-06-22T01:05:19;13.10;;;10.20;;
56927;SDS011;60850;52.502;13.426;2023-06-22T01:07:52;13.32;;;9.63;;
56927;SDS011;60850;52.502;13.426;2023-06-22T01:10:28;16.58;;;9.50;;
56927;SDS011;60850;52.502;13.426;2023-06-22T01:13:01;14.50;;;10.63;;
56927;SDS011;60850;52.502;13.426;2023-06-22T01:15:31;14.18;;;10.93;;
56927;SDS011;60850;52.502;13.426;2023-06-22T01:18:04;12.48;;;9.68;;
56927;SDS011;60850;52.502;13.426;2023-06-22T01:20:32;13.90;;;10.40;;
56927;SDS011;60850;52.502;13.426;2023-06-22T01:23:18;14.13;;;11.30;;
56927;SDS011;60850;52.502;13.426;2023-06-22T01:25:56;18.00;;;11.48;;
56927;SDS011;60850;52.502;13.426;2023-06-22T01:28:39;16.95;;;10.93;;
56927;SDS011;60850;52.502;13.426;2023-06-22T01:31:10;14.23;;;10.90;;
56927;SDS011;60850;52.502;13.426;2023-06-22T01:33:42;15.43;;;10.60;;
56927;SDS011;60850;52.502;13.426;2023-06-22T01:36:10;12.88;;;10.15;;
56927;SDS011;60850;52.502;13.426;2023-06-22T01:38:39;17.30;;;11.75;;
56927;SDS011;60850;52.502;13.426;2023-06-22T01:41:07;14.70;;;10.98;;
56927;SDS011;60850;52.502;13.426;2023-06-22T01:43:34;15.30;;;10.60;;
56927;SDS011;60850;52.502;13.426;2023-06-22T01:46:03;15.07;;;11.05;;
56927;SDS011;60850;52.502;13.426;2023-06-22T01:48:31;15.10;;;10.70;;
56927;SDS011;60850;52.502;13.426;2023-06-22T01:50:58;15.90;;;12.38;;
56927;SDS011;60850;52.502;13.426;2023-06-22T01:53:25;14.65;;;11.23;;
56927;SDS011;60850;52.502;13.426;2023-06-22T01:55:52;14.00;;;11.70;;
56927;SDS011;60850;52.502;13.426;2023-06-22T01:58:19;16.48;;;11.70;;
56927;SDS011;60850;52.502;13.426;2023-06-22T02:00:50;17.60;;;12.55;;
56927;SDS011;60850;52.502;13.426;2023-06-22T02:05:54;14.80;;;11.85;;
56927;SDS011;60850;52.502;13.426;2023-06-22T02:08:28;15.25;;;11.90;;
56927;SDS011;60850;52.502;13.426;2023-06-22T02:10:57;15.27;;;11.63;;
56927;SDS011;60850;52.502;13.426;2023-06-22T02:13:26;15.82;;;11.93;;
56927;SDS011;60850;52.502;13.426;2023-06-22T02:15:53;16.80;;;11.23;;
56927;SDS011;60850;52.502;13.426;2023-06-22T02:18:21;16.38;;;11.63;;
56927;SDS011;60850;52.502;13.426;2023-06-22T02:20:49;17.95;;;12.13;;
56927;SDS011;60850;52.502;13.426;2023-06-22T02:23:16;19.52;;;13.25;;
56927;SDS011;60850;52.502;13.426;2023-06-22T02:25:43;18.38;;;13.45;;
56927;SDS011;60850;52.502;13.426;2023-06-22T02:28:10;20.85;;;13.60;;
56927;SDS011;60850;52.502;13.426;2023-06-22T02:30:37;17.70;;;12.98;;
56927;SDS011;60850;52.502;13.426;2023-06-22T02:33:04;20.15;;;13.18;;
56927;SDS011;60850;52.502;13.426;2023-06-22T02:35:31;19.55;;;12.80;;
56927;SDS011;60850;52.502;13.426;2023-06-22T02:38:03;20.42;;;14.05;;
56927;SDS011;60850;52.502;13.426;2023-06-22T02:40:30;17.67;;;13.85;;
56927;SDS011;60850;52.502;13.426;2023-06-22T02:42:58;19.23;;;13.57;;
56927;SDS011;60850;52.502;13.426;2023-06-22T02:45:27;20.45;;;13.32;;
56927;SDS011;60850;52.502;13.426;2023-06-22T02:47:54;32.60;;;13.27;;
56927;SDS011;60850;52.502;13.426;2023-06-22T02:50:21;19.63;;;13.18;;
56927;SDS011;60850;52.502;13.426;2023-06-22T02:52:48;22.73;;;13.93;;
56927;SDS011;60850;52.502;13.426;2023-06-22T02:55:19;16.95;;;13.82;;
56927;SDS011;60850;52.502;13.426;2023-06-22T02:57:46;20.25;;;13.63;;
56927;SDS011;60850;52.502;13.426;2023-06-22T03:00:13;23.23;;;13.68;;
56927;SDS011;60850;52.502;13.426;2023-06-22T03:02:43;19.60;;;13.05;;
56927;SDS011;60850;52.502;13.426;2023-06-22T03:05:10;18.42;;;13.25;;
56927;SDS011;60850;52.502;13.426;2023-06-22T03:07:39;18.98;;;12.60;;
56927;SDS011;60850;52.502;13.426;2023-06-22T03:10:08;17.30;;;11.80;;
56927;SDS011;60850;52.502;13.426;2023-06-22T03:12:37;15.70;;;11.93;;
56927;SDS011;60850;52.502;13.426;2023-06-22T03:15:05;16.52;;;11.93;;
56927;SDS011;60850;52.502;13.426;2023-06-22T03:17:33;15.13;;;10.82;;
56927;SDS011;60850;52.502;13.426;2023-06-22T03:20:00;14.90;;;11.32;;
56927;SDS011;60850;52.502;13.426;2023-06-22T03:22:31;15.35;;;11.23;;
56927;SDS011;60850;52.502;13.426;2023-06-22T03:24:58;13.98;;;9.90;;
56927;SDS011;60850;52.502;13.426;2023-06-22T03:27:25;15.90;;;9.65;;
56927;SDS011;60850;52.502;13.426;2023-06-22T03:29:53;11.55;;;8.75;;
56927;SDS011;60850;52.502;13.426;2023-06-22T03:32:20;11.98;;;9.45;;
56927;SDS011;60850;52.502;13.426;2023-06-22T03:34:47;12.35;;;9.30;;
56927;SDS011;60850;52.502;13.426;2023-06-22T03:37:14;11.55;;;8.73;;
56927;SDS011;60850;52.502;13.426;2023-06-22T03:39:43;11.45;;;8.82;;
56927;SDS011;60850;52.502;13.426;2023-06-22T03:42:10;13.23;;;7.43;;
56927;SDS011;60850;52.502;13.426;2023-06-22T03:44:37;9.30;;;7.70;;
56927;SDS011;60850;52.502;13.426;2023-06-22T03:47:05;12.02;;;8.60;;
56927;SDS011;60850;52.502;13.426;2023-06-22T03:49:32;10.75;;;7.80;;
56927;SDS011;60850;52.502;13.426;2023-06-22T03:52:00;13.40;;;8.38;;
56927;SDS011;60850;52.502;13.426;2023-06-22T03:54:27;11.48;;;8.07;;
56927;SDS011;60850;52.502;13.426;2023-06-22T03:56:55;11.13;;;7.72;;
56927;SDS011;60850;52.502;13.426;2023-06-22T03:59:23;12.30;;;7.40;;
56927;SDS011;60850;52.502;13.426;2023-06-22T04:01:50;15.25;;;7.65;;
56927;SDS011;60850;52.502;13.426;2023-06-22T04:04:18;10.90;;;7.72;;
56927;SDS011;60850;52.502;13.426;2023-06-22T04:06:45;9.15;;;7.20;;
56927;SDS011;60850;52.502;13.426;2023-06-22T04:09:12;10.35;;;7.05;;
56927;SDS011;60850;52.502;13.426;2023-06-22T04:11:39;10.95;;;7.18;;
56927;SDS011;60850;52.502;13.426;2023-06-22T04:14:06;10.95;;;7.32;;
56927;SDS011;60850;52.502;13.426;2023-06-22T04:16:33;8.18;;;6.28;;
56927;SDS011;60850;52.502;13.426;2023-06-22T04:19:00;11.68;;;6.72;;
56927;SDS011;60850;52.502;13.426;2023-06-22T04:21:28;9.07;;;6.38;;
56927;SDS011;60850;52.502;13.426;2023-06-22T04:23:55;9.77;;;6.50;;
56927;SDS011;60850;52.502;13.426;2023-06-22T04:26:22;9.07;;;6.00;;
56927;SDS011;60850;52.502;13.426;2023-06-22T04:28:48;9.95;;;5.60;;
56927;SDS011;60850;52.502;13.426;2023-06-22T04:31:21;8.25;;;6.03;;
56927;SDS011;60850;52.502;13.426;2023-06-22T04:33:57;9.40;;;5.57;;
56927;SDS011;60850;52.502;13.426;2023-06-22T04:36:32;7.63;;;5.18;;
56927;SDS011;60850;52.502;13.426;2023-06-22T04:39:03;9.73;;;6.30;;
56927;SDS011;60850;52.502;13.426;2023-06-22T04:41:32;10.10;;;6.32;;
56927;SDS011;60850;52.502;13.426;2023-06-22T04:44:08;10.75;;;6.10;;
56927;SDS011;60850;52.502;13.426;2023-06-22T04:46:35;8.10;;;5.57;;
56927;SDS011;60850;52.502;13.426;2023-06-22T04:49:04;9.95;;;6.45;;
56927;SDS011;60850;52.502;13.426;2023-06-22T04:51:40;8.23;;;5.75;;
56927;SDS011;60850;52.502;13.426;2023-06-22T04:54:08;6.93;;;5.47;;
56927;SDS011;60850;52.502;13.426;2023-06-22T04:56:36;9.23;;;4.90;;
56927;SDS011;60850;52.502;13.426;2023-06-22T04:59:03;5.90;;;4.68;;
56927;SDS011;60850;52.502;13.426;2023-06-22T05:01:30;6.75;;;4.57;;
56927;SDS011;60850;52.502;13.426;2023-06-22T05:03:57;6.78;;;5.18;;
56927;SDS011;60850;52.502;13.426;2023-06-22T05:06:26;7.82;;;4.97;;
56927;SDS011;60850;52.502;13.426;2023-06-22T05:08:55;7.82;;;4.43;;
56927;SDS011;60850;52.502;13.426;2023-06-22T05:11:24;18.30;;;6.43;;
56927;SDS011;60850;52.502;13.426;2023-06-22T05:13:51;6.15;;;4.78;;
56927;SDS011;60850;52.502;13.426;2023-06-22T05:16:18;7.60;;;5.10;;
56927;SDS011;60850;52.502;13.426;2023-06-22T05:18:49;7.07;;;5.45;;
56927;SDS011;60850;52.502;13.426;2023-06-22T05:21:17;9.25;;;5.32;;
56927;SDS011;60850;52.502;13.426;2023-06-22T05:23:44;8.80;;;5.55;;
56927;SDS011;60850;52.502;13.426;2023-06-22T05:26:12;8.07;;;5.15;;
56927;SDS011;60850;52.502;13.426;2023-06-22T05:28:39;9.60;;;6.15;;
56927;SDS011;60850;52.502;13.426;2023-06-22T05:31:06;6.22;;;4.85;;
56927;SDS011;60850;52.502;13.426;2023-06-22T05:33:33;7.22;;;5.57;;
56927;SDS011;60850;52.502;13.426;2023-06-22T05:36:00;9.45;;;5.18;;
56927;SDS011;60850;52.502;13.426;2023-06-22T05:38:27;7.55;;;5.18;;
56927;SDS011;60850;52.502;13.426;2023-06-22T05:40:54;7.90;;;5.43;;
56927;SDS011;60850;52.502;13.426;2023-06-22T05:43:22;7.90;;;5.78;;
56927;SDS011;60850;52.502;13.426;2023-06-22T05:45:49;8.00;;;5.07;;
56927;SDS011;60850;52.502;13.426;2023-06-22T05:48:16;8.98;;;5.20;;
56927;SDS011;60850;52.502;13.426;2023-06-22T05:50:43;7.45;;;5.03;;
56927;SDS011;60850;52.502;13.426;2023-06-22T05:53:09;11.05;;;5.60;;
56927;SDS011;60850;52.502;13.426;2023-06-22T05:55:37;6.32;;;4.82;;
56927;SDS011;60850;52.502;13.426;2023-06-22T05:58:03;9.82;;;4.22;;
56927;SDS011;60850;52.502;13.426;2023-06-22T06:00:32;7.88;;;5.07;;
56927;SDS011;60850;52.502;13.426;2023-06-22T06:02:59;6.40;;;4.45;;
56927;SDS011;60850;52.502;13.426;2023-06-22T06:05:28;6.95;;;4.20;;
56927;SDS011;60850;52.502;13.426;2023-06-22T06:07:55;6.35;;;4.57;;
56927;SDS011;60850;52.502;13.426;2023-06-22T06:10:22;6.32;;;4.55;;
56927;SDS011;60850;52.502;13.426;2023-06-22T06:12:49;6.10;;;4.53;;
56927;SDS011;60850;52.502;13.426;2023-06-22T06:15:16;6.95;;;4.88;;
56927;SDS011;60850;52.502;13.426;2023-06-22T06:17:47;5.50;;;4.93;;
56927;SDS011;60850;52.502;13.426;2023-06-22T06:20:15;7.65;;;4.15;;
56927;SDS011;60850;52.502;13.426;2023-06-22T06:22:42;6.30;;;4.18;;
56927;SDS011;60850;52.502;13.426;2023-06-22T06:25:09;6.95;;;4.28;;
56927;SDS011;60850;52.502;13.426;2023-06-22T06:27:41;6.60;;;4.40;;
56927;SDS011;60850;52.502;13.426;2023-06-22T06:30:09;7.07;;;4.25;;
56927;SDS011;60850;52.502;13.426;2023-06-22T06:32:37;4.72;;;3.45;;
56927;SDS011;60850;52.502;13.426;2023-06-22T06:35:07;5.32;;;3.90;;
56927;SDS011;60850;52.502;13.426;2023-06-22T06:37:36;5.22;;;3.85;;
56927;SDS011;60850;52.502;13.426;2023-06-22T06:40:04;5.88;;;3.88;;
56927;SDS011;60850;52.502;13.426;2023-06-22T06:42:33;5.15;;;3.40;;
56927;SDS011;60850;52.502;13.426;2023-06-22T06:45:00;5.63;;;3.92;;
56927;SDS011;60850;52.502;13.426;2023-06-22T06:47:26;5.55;;;3.97;;
56927;SDS011;60850;52.502;13.426;2023-06-22T06:49:54;4.22;;;3.42;;
56927;SDS011;60850;52.502;13.426;2023-06-22T06:52:22;5.40;;;3.30;;
56927;SDS011;60850;52.502;13.426;2023-06-22T06:54:49;4.45;;;2.97;;
56927;SDS011;60850;52.502;13.426;2023-06-22T06:57:17;5.90;;;3.20;;
56927;SDS011;60850;52.502;13.426;2023-06-22T06:59:44;5.28;;;3.25;;
56927;SDS011;60850;52.502;13.426;2023-06-22T07:02:10;5.25;;;3.05;;
56927;SDS011;60850;52.502;13.426;2023-06-22T07:04:37;5.32;;;3.38;;
56927;SDS011;60850;52.502;13.426;2023-06-22T07:07:04;6.47;;;3.20;;
56927;SDS011;60850;52.502;13.426;2023-06-22T07:09:33;5.03;;;3.22;;
56927;SDS011;60850;52.502;13.426;2023-06-22T07:11:59;4.80;;;2.78;;
56927;SDS011;60850;52.502;13.426;2023-06-22T07:14:26;4.88;;;2.72;;
56927;SDS011;60850;52.502;13.426;2023-06-22T07:16:53;4.10;;;2.80;;
56927;SDS011;60850;52.502;13.426;2023-06-22T07:19:24;7.50;;;2.88;;
56927;SDS011;60850;52.502;13.426;2023-06-22T07:21:51;3.70;;;3.40;;
56927;SDS011;60850;52.502;13.426;2023-06-22T07:24:19;4.30;;;3.00;;
56927;SDS011;60850;52.502;13.426;2023-06-22T07:26:47;4.00;;;3.10;;
56927;SDS011;60850;52.502;13.426;2023-06-22T07:29:15;3.92;;;2.80;;
56927;SDS011;60850;52.502;13.426;2023-06-22T07:31:43;4.40;;;2.72;;
56927;SDS011;60850;52.502;13.426;2023-06-22T07:34:10;4.57;;;2.78;;
56927;SDS011;60850;52.502;13.426;2023-06-22T07:36:37;3.72;;;2.60;;
56927;SDS011;60850;52.502;13.426;2023-06-22T07:39:04;3.05;;;2.42;;
56927;SDS011;60850;52.502;13.426;2023-06-22T07:41:31;5.43;;;2.45;;
56927;SDS011;60850;52.502;13.426;2023-06-22T07:44:01;3.58;;;2.22;;
56927;SDS011;60850;52.502;13.426;2023-06-22T07:46:29;2.83;;;2.08;;
56927;SDS011;60850;52.502;13.426;2023-06-22T07:48:56;3.17;;;1.73;;
56927;SDS011;60850;52.502;13.426;2023-06-22T07:51:23;2.67;;;2.10;;
56927;SDS011;60850;52.502;13.426;2023-06-22T07:53:53;4.70;;;2.08;;
56927;SDS011;60850;52.502;13.426;2023-06-22T07:56:20;4.28;;;2.15;;
56927;SDS011;60850;52.502;13.426;2023-06-22T07:58:47;3.20;;;2.45;;
56927;SDS011;60850;52.502;13.426;2023-06-22T08:01:16;3.72;;;1.83;;
56927;SDS011;60850;52.502;13.426;2023-06-22T08:03:46;2.80;;;2.00;;
56927;SDS011;60850;52.502;13.426;2023-06-22T08:06:14;4.95;;;2.20;;
56927;SDS011;60850;52.502;13.426;2023-06-22T08:08:42;3.10;;;2.25;;
56927;SDS011;60850;52.502;13.426;2023-06-22T08:11:09;5.30;;;2.00;;
56927;SDS011;60850;52.502;13.426;2023-06-22T08:13:36;3.05;;;1.77;;
56927;SDS011;60850;52.502;13.426;2023-06-22T08:16:02;4.63;;;2.05;;
56927;SDS011;60850;52.502;13.426;2023-06-22T08:18:31;4.82;;;2.70;;
56927;SDS011;60850;52.502;13.426;2023-06-22T08:20:58;6.22;;;2.20;;
56927;SDS011;60850;52.502;13.426;2023-06-22T08:23:25;3.78;;;2.28;;
56927;SDS011;60850;52.502;13.426;2023-06-22T08:25:51;5.03;;;2.60;;
56927;SDS011;60850;52.502;13.426;2023-06-22T08:28:18;3.75;;;2.70;;
56927;SDS011;60850;52.502;13.426;2023-06-22T08:30:45;4.80;;;2.58;;
56927;SDS011;60850;52.502;13.426;2023-06-22T08:33:12;3.90;;;2.53;;
56927;SDS011;60850;52.502;13.426;2023-06-22T08:35:41;2.65;;;2.33;;
56927;SDS011;60850;52.502;13.426;2023-06-22T08:38:09;4.55;;;2.65;;
56927;SDS011;60850;52.502;13.426;2023-06-22T08:40:36;3.88;;;2.22;;
56927;SDS011;60850;52.502;13.426;2023-06-22T08:43:02;3.80;;;2.38;;
56927;SDS011;60850;52.502;13.426;2023-06-22T08:45:30;5.05;;;3.08;;
56927;SDS011;60850;52.502;13.426;2023-06-22T08:47:57;3.78;;;2.92;;
56927;SDS011;60850;52.502;13.426;2023-06-22T08:50:24;7.25;;;3.20;;
56927;SDS011;60850;52.502;13.426;2023-06-22T08:52:52;4.40;;;2.60;;
56927;SDS011;60850;52.502;13.426;2023-06-22T08:55:19;4.75;;;3.15;;
56927;SDS011;60850;52.502;13.426;2023-06-22T08:57:46;5.03;;;3.40;;
56927;SDS011;60850;52.502;13.426;2023-06-22T09:00:13;2.85;;;2.60;;
56927;SDS011;60850;52.502;13.426;2023-06-22T09:02:46;3.75;;;2.72;;
56927;SDS011;60850;52.502;13.426;2023-06-22T09:05:13;5.32;;;2.60;;
56927;SDS011;60850;52.502;13.426;2023-06-22T09:07:43;4.10;;;2.70;;
56927;SDS011;60850;52.502;13.426;2023-06-22T09:10:11;4.13;;;2.50;;
56927;SDS011;60850;52.502;13.426;2023-06-22T09:12:39;4.55;;;2.63;;
56927;SDS011;60850;52.502;13.426;2023-06-22T09:15:06;4.32;;;2.80;;
56927;SDS011;60850;52.502;13.426;2023-06-22T09:17:33;4.05;;;3.00;;
56927;SDS011;60850;52.502;13.426;2023-06-22T09:20:02;5.20;;;2.72;;
56927;SDS011;60850;52.502;13.426;2023-06-22T09:22:31;4.43;;;3.03;;
56927;SDS011;60850;52.502;13.426;2023-06-22T09:24:58;3.22;;;2.25;;
56927;SDS011;60850;52.502;13.426;2023-06-22T09:27:27;4.93;;;2.60;;
56927;SDS011;60850;52.502;13.426;2023-06-22T09:29:54;3.67;;;2.50;;
56927;SDS011;60850;52.502;13.426;2023-06-22T09:32:23;3.70;;;2.50;;
56927;SDS011;60850;52.502;13.426;2023-06-22T09:34:50;3.45;;;2.30;;
56927;SDS011;60850;52.502;13.426;2023-06-22T09:37:18;3.90;;;2.17;;
56927;SDS011;60850;52.502;13.426;2023-06-22T09:39:44;3.10;;;2.50;;
56927;SDS011;60850;52.502;13.426;2023-06-22T09:42:11;4.28;;;2.70;;
56927;SDS011;60850;52.502;13.426;2023-06-22T09:44:40;4.65;;;2.92;;
56927;SDS011;60850;52.502;13.426;2023-06-22T09:47:07;3.42;;;2.65;;
56927;SDS011;60850;52.502;13.426;2023-06-22T09:49:34;4.05;;;2.90;;
56927;SDS011;60850;52.502;13.426;2023-06-22T09:52:01;4.05;;;3.20;;
56927;SDS011;60850;52.502;13.426;2023-06-22T09:54:27;3.97;;;2.80;;
56927;SDS011;60850;52.502;13.426;2023-06-22T09:56:54;7.18;;;2.80;;
56927;SDS011;60850;52.502;13.426;2023-06-22T09:59:21;3.58;;;3.15;;
56927;SDS011;60850;52.502;13.426;2023-06-22T10:01:49;7.07;;;3.35;;
56927;SDS011;60850;52.502;13.426;2023-06-22T10:04:16;3.38;;;2.55;;
56927;SDS011;60850;52.502;13.426;2023-06-22T10:06:43;4.80;;;2.83;;
56927;SDS011;60850;52.502;13.426;2023-06-22T10:09:10;3.38;;;2.90;;
56927;SDS011;60850;52.502;13.426;2023-06-22T10:11:37;3.95;;;2.83;;
56927;SDS011;60850;52.502;13.426;2023-06-22T10:14:03;4.88;;;3.08;;
56927;SDS011;60850;52.502;13.426;2023-06-22T10:16:31;5.53;;;3.10;;
56927;SDS011;60850;52.502;13.426;2023-06-22T10:19:00;6.63;;;3.25;;
56927;SDS011;60850;52.502;13.426;2023-06-22T10:21:27;5.00;;;3.20;;
56927;SDS011;60850;52.502;13.426;2023-06-22T10:23:54;3.60;;;3.20;;
56927;SDS011;60850;52.502;13.426;2023-06-22T10:26:21;3.97;;;3.30;;
56927;SDS011;60850;52.502;13.426;2023-06-22T10:28:48;6.25;;;3.47;;
56927;SDS011;60850;52.502;13.426;2023-06-22T10:31:15;3.92;;;2.97;;
56927;SDS011;60850;52.502;13.426;2023-06-22T10:33:42;6.05;;;3.40;;
56927;SDS011;60850;52.502;13.426;2023-06-22T10:36:11;3.58;;;3.13;;
56927;SDS011;60850;52.502;13.426;2023-06-22T10:38:38;4.10;;;3.17;;
56927;SDS011;60850;52.502;13.426;2023-06-22T10:41:05;4.80;;;2.85;;
56927;SDS011;60850;52.502;13.426;2023-06-22T10:43:32;6.68;;;3.67;;
56927;SDS011;60850;52.502;13.426;2023-06-22T10:45:59;3.35;;;2.78;;
56927;SDS011;60850;52.502;13.426;2023-06-22T10:48:25;4.55;;;3.45;;
56927;SDS011;60850;52.502;13.426;2023-06-22T10:50:52;4.15;;;3.30;;
56927;SDS011;60850;52.502;13.426;2023-06-22T10:53:21;4.88;;;2.95;;
56927;SDS011;60850;52.502;13.426;2023-06-22T10:55:48;5.38;;;3.10;;
56927;SDS011;60850;52.502;13.426;2023-06-22T10:58:17;3.38;;;2.88;;
56927;SDS011;60850;52.502;13.426;2023-06-22T11:00:44;3.90;;;2.90;;
56927;SDS011;60850;52.502;13.426;2023-06-22T11:03:11;4.32;;;2.90;;
56927;SDS011;60850;52.502;13.426;2023-06-22T11:05:39;3.30;;;3.00;;
56927;SDS011;60850;52.502;13.426;2023-06-22T11:08:07;6.03;;;4.10;;
56927;SDS011;60850;52.502;13.426;2023-06-22T11:10:35;4.35;;;3.05;;
56927;SDS011;60850;52.502;13.426;2023-06-22T11:13:02;5.97;;;3.30;;
56927;SDS011;60850;52.502;13.426;2023-06-22T11:15:29;3.47;;;2.80;;
56927;SDS011;60850;52.502;13.426;2023-06-22T11:17:56;3.83;;;2.70;;
56927;SDS011;60850;52.502;13.426;2023-06-22T11:20:23;3.55;;;2.78;;
56927;SDS011;60850;52.502;13.426;2023-06-22T11:22:50;6.35;;;3.28;;
56927;SDS011;60850;52.502;13.426;2023-06-22T11:25:17;3.83;;;2.70;;
56927;SDS011;60850;52.502;13.426;2023-06-22T11:27:45;4.68;;;3.20;;
56927;SDS011;60850;52.502;13.426;2023-06-22T11:30:12;5.38;;;2.78;;
56927;SDS011;60850;52.502;13.426;2023-06-22T11:32:39;3.83;;;2.60;;
56927;SDS011;60850;52.502;13.426;2023-06-22T11:35:07;4.25;;;3.30;;
56927;SDS011;60850;52.502;13.426;2023-06-22T11:37:33;3.78;;;3.03;;
56927;SDS011;60850;52.502;13.426;2023-06-22T11:40:00;3.05;;;2.75;;
56927;SDS011;60850;52.502;13.426;2023-06-22T11:42:30;7.47;;;3.38;;
56927;SDS011;60850;52.502;13.426;2023-06-22T11:44:58;5.38;;;2.75;;
56927;SDS011;60850;52.502;13.426;2023-06-22T11:47:25;4.43;;;2.85;;
56927;SDS011;60850;52.502;13.426;2023-06-22T11:49:52;3.10;;;2.80;;
56927;SDS011;60850;52.502;13.426;2023-06-22T11:52:19;3.53;;;2.65;;
56927;SDS011;60850;52.502;13.426;2023-06-22T11:54:46;4.05;;;3.08;;
56927;SDS011;60850;52.502;13.426;2023-06-22T11:57:12;4.40;;;3.25;;
56927;SDS011;60850;52.502;13.426;2023-06-22T11:59:39;4.40;;;2.97;;
56927;SDS011;60850;52.502;13.426;2023-06-22T12:02:07;2.95;;;2.65;;
56927;SDS011;60850;52.502;13.426;2023-06-22T12:04:35;4.18;;;3.05;;
56927;SDS011;60850;52.502;13.426;2023-06-22T12:07:01;6.60;;;3.08;;
56927;SDS011;60850;52.502;13.426;2023-06-22T12:09:29;5.65;;;3.20;;
56927;SDS011;60850;52.502;13.426;2023-06-22T12:11:55;3.65;;;2.72;;
56927;SDS011;60850;52.502;13.426;2023-06-22T12:14:22;6.03;;;2.70;;
56927;SDS011;60850;52.502;13.426;2023-06-22T12:16:49;5.70;;;3.50;;
56927;SDS011;60850;52.502;13.426;2023-06-22T12:19:17;5.40;;;3.30;;
56927;SDS011;60850;52.502;13.426;2023-06-22T12:21:44;4.20;;;3.10;;
56927;SDS011;60850;52.502;13.426;2023-06-22T12:24:11;5.38;;;3.50;;
56927;SDS011;60850;52.502;13.426;2023-06-22T12:26:38;4.95;;;3.28;;
56927;SDS011;60850;52.502;13.426;2023-06-22T12:29:05;4.38;;;3.53;;
56927;SDS011;60850;52.502;13.426;2023-06-22T12:31:32;3.35;;;2.70;;
56927;SDS011;60850;52.502;13.426;2023-06-22T12:33:59;4.55;;;3.65;;
56927;SDS011;60850;52.502;13.426;2023-06-22T12:36:28;5.15;;;4.03;;
56927;SDS011;60850;52.502;13.426;2023-06-22T12:38:55;4.78;;;2.88;;
56927;SDS011;60850;52.502;13.426;2023-06-22T12:41:22;6.20;;;3.38;;
56927;SDS011;60850;52.502;13.426;2023-06-22T12:43:49;6.20;;;3.88;;
56927;SDS011;60850;52.502;13.426;2023-06-22T12:46:16;5.35;;;3.50;;
56927;SDS011;60850;52.502;13.426;2023-06-22T12:48:43;5.18;;;3.90;;
56927;SDS011;60850;52.502;13.426;2023-06-22T12:51:09;5.18;;;3.60;;
56927;SDS011;60850;52.502;13.426;2023-06-22T12:53:38;5.00;;;3.50;;
56927;SDS011;60850;52.502;13.426;2023-06-22T12:56:04;4.80;;;3.72;;
56927;SDS011;60850;52.502;13.426;2023-06-22T12:58:31;4.38;;;3.58;;
56927;SDS011;60850;52.502;13.426;2023-06-22T13:00:58;4.55;;;3.30;;
56927;SDS011;60850;52.502;13.426;2023-06-22T13:03:25;4.70;;;3.58;;
56927;SDS011;60850;52.502;13.426;2023-06-22T13:05:53;9.25;;;4.45;;
56927;SDS011;60850;52.502;13.426;2023-06-22T13:08:20;4.30;;;3.83;;
56927;SDS011;60850;52.502;13.426;2023-06-22T13:10:48;4.68;;;3.55;;
56927;SDS011;60850;52.502;13.426;2023-06-22T13:13:15;4.15;;;3.75;;
56927;SDS011;60850;52.502;13.426;2023-06-22T13:15:42;5.63;;;4.10;;
56927;SDS011;60850;52.502;13.426;2023-06-22T13:18:09;5.63;;;3.88;;
56927;SDS011;60850;52.502;13.426;2023-06-22T13:20:35;5.05;;;3.70;;
56927;SDS011;60850;52.502;13.426;2023-06-22T13:23:02;6.43;;;3.90;;
56927;SDS011;60850;52.502;13.426;2023-06-22T13:25:29;4.97;;;3.85;;
56927;SDS011;60850;52.502;13.426;2023-06-22T13:27:57;3.92;;;3.53;;
56927;SDS011;60850;52.502;13.426;2023-06-22T13:30:24;5.47;;;3.47;;
56927;SDS011;60850;52.502;13.426;2023-06-22T13:32:51;4.75;;;3.33;;
56927;SDS011;60850;52.502;13.426;2023-06-22T13:35:18;4.25;;;3.50;;
56927;SDS011;60850;52.502;13.426;2023-06-22T13:37:45;4.30;;;3.30;;
56927;SDS011;60850;52.502;13.426;2023-06-22T13:40:11;6.60;;;3.88;;
56927;SDS011;60850;52.502;13.426;2023-06-22T13:42:39;4.00;;;3.60;;
56927;SDS011;60850;52.502;13.426;2023-06-22T13:45:07;5.10;;;3.75;;
56927;SDS011;60850;52.502;13.426;2023-06-22T13:47:34;4.10;;;3.38;;
56927;SDS011;60850;52.502;13.426;2023-06-22T13:50:01;4.65;;;3.75;;
56927;SDS011;60850;52.502;13.426;2023-06-22T13:52:28;6.18;;;3.70;;
56927;SDS011;60850;52.502;13.426;2023-06-22T13:54:55;4.38;;;3.75;;
56927;SDS011;60850;52.502;13.426;2023-06-22T13:57:22;4.60;;;3.90;;
56927;SDS011;60850;52.502;13.426;2023-06-22T13:59:49;6.28;;;3.67;;
56927;SDS011;60850;52.502;13.426;2023-06-22T14:02:17;4.78;;;3.70;;
56927;SDS011;60850;52.502;13.426;2023-06-22T14:04:44;4.43;;;3.97;;
56927;SDS011;60850;52.502;13.426;2023-06-22T14:07:11;6.15;;;4.82;;
56927;SDS011;60850;52.502;13.426;2023-06-22T14:09:37;4.88;;;3.90;;
56927;SDS011;60850;52.502;13.426;2023-06-22T14:12:05;4.47;;;3.80;;
56927;SDS011;60850;52.502;13.426;2023-06-22T14:14:32;7.97;;;3.70;;
56927;SDS011;60850;52.502;13.426;2023-06-22T14:16:59;6.45;;;3.75;;
56927;SDS011;60850;52.502;13.426;2023-06-22T14:19:27;7.75;;;3.90;;
56927;SDS011;60850;52.502;13.426;2023-06-22T14:21:54;4.85;;;3.63;;
56927;SDS011;60850;52.502;13.426;2023-06-22T14:24:22;6.22;;;4.07;;
56927;SDS011;60850;52.502;13.426;2023-06-22T14:26:49;6.55;;;3.58;;
56927;SDS011;60850;52.502;13.426;2023-06-22T14:29:15;5.78;;;3.40;;
56927;SDS011;60850;52.502;13.426;2023-06-22T14:31:44;4.75;;;3.47;;
56927;SDS011;60850;52.502;13.426;2023-06-22T14:34:12;3.65;;;3.30;;